createdAt,value
2023-02-24T00:01:25.023Z,83.30
2023-02-24T00:03:52.882Z,83.44
2023-02-24T00:06:20.392Z,83.55
2023-02-24T00:08:47.903Z,83.41
2023-02-24T00:11:15.446Z,83.22
2023-02-24T00:13:46.579Z,82.97
2023-02-24T00:16:14.422Z,83.04
2023-02-24T00:18:42.150Z,83.02
2023-02-24T00:21:11.010Z,83.16
2023-02-24T00:23:40.244Z,83.16
2023-02-24T00:26:07.758Z,83.17
2023-02-24T00:28:35.464Z,83.16
2023-02-24T00:31:03.135Z,83.33
2023-02-24T00:33:30.869Z,83.41
2023-02-24T00:35:58.321Z,83.37
2023-02-24T00:38:25.876Z,83.31
2023-02-24T00:40:53.359Z,83.36
2023-02-24T00:43:20.819Z,83.29
2023-02-24T00:45:51.563Z,83.18
2023-02-24T00:48:19.088Z,83.56
2023-02-24T00:50:46.551Z,83.63
2023-02-24T00:53:14.173Z,83.72
2023-02-24T00:55:41.776Z,83.73
2023-02-24T00:58:09.239Z,83.80
2023-02-24T01:00:37.199Z,83.66
2023-02-24T01:03:04.856Z,83.42
2023-02-24T01:05:32.327Z,83.40
2023-02-24T01:07:59.845Z,83.70
2023-02-24T01:10:28.648Z,83.91
2023-02-24T01:12:56.091Z,84.21
2023-02-24T01:15:23.673Z,84.13
2023-02-24T01:17:51.208Z,84.16
2023-02-24T01:20:19.094Z,84.11
2023-02-24T01:22:46.755Z,84.08
2023-02-24T01:25:14.497Z,84.03
2023-02-24T01:27:41.997Z,84.08
2023-02-24T01:30:09.487Z,84.19
2023-02-24T01:32:37.067Z,84.24
2023-02-24T01:35:04.756Z,84.20
2023-02-24T01:37:32.305Z,84.29
2023-02-24T01:40:04.644Z,84.38
2023-02-24T01:42:32.910Z,84.31
2023-02-24T01:45:00.386Z,84.22
2023-02-24T01:47:31.158Z,84.26
2023-02-24T01:49:58.606Z,84.48
2023-02-24T01:52:26.270Z,84.44
2023-02-24T01:54:55.252Z,84.44
2023-02-24T01:57:23.723Z,84.48
2023-02-24T01:59:51.789Z,84.55
2023-02-24T02:02:19.473Z,84.79
2023-02-24T02:04:47.131Z,84.91
2023-02-24T02:07:15.806Z,85.05
2023-02-24T02:09:43.296Z,85.03
2023-02-24T02:12:10.719Z,85.15
2023-02-24T02:14:38.408Z,85.07
2023-02-24T02:17:05.819Z,84.97
2023-02-24T02:19:33.283Z,84.90
2023-02-24T02:22:00.814Z,84.89
2023-02-24T02:24:28.322Z,84.73
2023-02-24T02:26:57.987Z,84.70
2023-02-24T02:29:25.521Z,84.70
2023-02-24T02:31:55.484Z,84.78
2023-02-24T02:34:23.105Z,84.90
2023-02-24T02:36:50.646Z,84.91
2023-02-24T02:39:18.169Z,84.92
2023-02-24T02:41:45.610Z,84.82
2023-02-24T02:44:13.067Z,84.93
2023-02-24T02:46:40.486Z,84.97
2023-02-24T02:49:07.916Z,85.00
2023-02-24T02:51:38.814Z,84.98
2023-02-24T02:54:07.953Z,85.08
2023-02-24T02:56:35.394Z,85.26
2023-02-24T02:59:03.344Z,85.44
2023-02-24T03:01:30.899Z,85.46
2023-02-24T03:03:59.095Z,85.43
2023-02-24T03:06:26.590Z,85.50
2023-02-24T03:08:54.022Z,85.63
2023-02-24T03:11:21.841Z,85.67
2023-02-24T03:13:49.888Z,85.62
2023-02-24T03:16:17.402Z,85.76
2023-02-24T03:18:44.980Z,85.91
2023-02-24T03:21:12.572Z,86.06
2023-02-24T03:23:40.016Z,86.22
2023-02-24T03:26:07.992Z,86.35
2023-02-24T03:28:37.364Z,86.31
2023-02-24T03:31:04.931Z,86.29
2023-02-24T03:33:32.499Z,86.40
2023-02-24T03:36:01.843Z,86.37
2023-02-24T03:38:30.573Z,86.50
2023-02-24T03:40:59.043Z,86.37
2023-02-24T03:43:26.677Z,86.24
2023-02-24T03:45:54.304Z,86.14
2023-02-24T03:48:21.898Z,86.15
2023-02-24T03:50:49.703Z,86.09
2023-02-24T03:53:17.146Z,86.06
2023-02-24T03:55:44.631Z,85.99
2023-02-24T03:58:12.807Z,85.99
2023-02-24T04:00:40.317Z,86.05
2023-02-24T04:03:08.099Z,86.11
2023-02-24T04:05:35.664Z,86.16
2023-02-24T04:08:04.094Z,86.18
2023-02-24T04:10:31.576Z,86.30
2023-02-24T04:12:59.760Z,86.31
2023-02-24T04:15:29.539Z,86.39
2023-02-24T04:17:57.658Z,86.37
2023-02-24T04:20:27.941Z,86.41
2023-02-24T04:22:57.026Z,86.39
2023-02-24T04:25:24.971Z,86.37
2023-02-24T04:27:52.754Z,86.40
2023-02-24T04:30:20.404Z,86.30
2023-02-24T04:32:47.922Z,86.37
2023-02-24T04:35:15.716Z,86.43
2023-02-24T04:37:44.702Z,86.46
2023-02-24T04:40:12.434Z,86.39
2023-02-24T04:42:49.281Z,86.31
2023-02-24T04:45:16.958Z,86.26
2023-02-24T04:47:46.120Z,86.34
2023-02-24T04:50:22.866Z,86.60
2023-02-24T04:52:50.460Z,86.78
2023-02-24T04:55:18.034Z,87.08
2023-02-24T04:57:46.108Z,87.04
2023-02-24T05:00:21.733Z,86.91
2023-02-24T05:02:49.298Z,86.82
2023-02-24T05:05:16.823Z,86.74
2023-02-24T05:07:47.794Z,86.65
2023-02-24T05:10:15.559Z,86.60
2023-02-24T05:12:43.039Z,86.60
2023-02-24T05:15:10.519Z,86.49
2023-02-24T05:17:38.063Z,86.39
2023-02-24T05:20:24.279Z,86.47
2023-02-24T05:22:51.814Z,87.02
2023-02-24T05:25:19.267Z,86.95
2023-02-24T05:27:47.449Z,86.82
2023-02-24T05:30:15.000Z,86.56
2023-02-24T05:32:42.858Z,86.29
2023-02-24T05:35:11.025Z,86.11
2023-02-24T05:37:38.829Z,86.08
2023-02-24T05:40:06.514Z,86.10
2023-02-24T05:42:35.175Z,86.25
2023-02-24T05:45:03.173Z,86.38
2023-02-24T05:47:30.601Z,86.40
2023-02-24T05:49:59.118Z,86.33
2023-02-24T05:52:26.742Z,86.28
2023-02-24T05:54:55.109Z,86.25
2023-02-24T05:57:25.777Z,86.38
2023-02-24T05:59:55.880Z,86.40
2023-02-24T06:02:27.747Z,86.40
2023-02-24T06:04:55.923Z,86.52
2023-02-24T06:07:24.965Z,86.74
2023-02-24T06:09:57.155Z,87.12
2023-02-24T06:12:24.770Z,87.51
2023-02-24T06:14:53.250Z,86.35
2023-02-24T06:17:20.791Z,86.46
2023-02-24T06:19:49.323Z,86.49
2023-02-24T06:22:16.837Z,86.50
2023-02-24T06:24:44.385Z,86.57
2023-02-24T06:27:17.602Z,86.60
2023-02-24T06:29:45.176Z,86.72
2023-02-24T06:32:12.886Z,87.00
2023-02-24T06:34:41.143Z,87.12
2023-02-24T06:37:08.738Z,87.11
2023-02-24T06:39:36.872Z,87.20
2023-02-24T06:42:05.580Z,87.34
2023-02-24T06:44:33.856Z,87.46
2023-02-24T06:47:01.363Z,87.44
2023-02-24T06:49:29.028Z,87.47
2023-02-24T06:51:57.582Z,87.42
2023-02-24T06:54:28.292Z,87.25
2023-02-24T06:56:55.751Z,87.28
2023-02-24T06:59:28.146Z,87.30
2023-02-24T07:01:55.772Z,87.36
2023-02-24T07:04:28.111Z,87.41
2023-02-24T07:06:56.289Z,87.44
2023-02-24T07:09:24.072Z,87.41
2023-02-24T07:11:56.780Z,87.42
2023-02-24T07:14:24.205Z,87.47
2023-02-24T07:16:55.093Z,87.26
2023-02-24T07:19:22.892Z,87.07
2023-02-24T07:21:52.532Z,86.98
2023-02-24T07:24:24.962Z,87.05
2023-02-24T07:26:52.564Z,86.98
2023-02-24T07:29:20.061Z,86.91
2023-02-24T07:31:48.990Z,86.80
2023-02-24T07:34:23.471Z,86.65
2023-02-24T07:36:51.510Z,86.72
2023-02-24T07:39:19.651Z,86.74
2023-02-24T07:41:49.497Z,86.67
2023-02-24T07:44:17.132Z,86.57
2023-02-24T07:46:44.688Z,86.75
2023-02-24T07:49:12.463Z,86.63
2023-02-24T07:51:40.107Z,86.33
2023-02-24T07:54:08.809Z,86.29
2023-02-24T07:56:45.894Z,86.30
2023-02-24T07:59:18.951Z,86.23
2023-02-24T08:01:49.990Z,86.12
2023-02-24T08:04:17.423Z,85.98
2023-02-24T08:06:47.926Z,85.69
2023-02-24T08:09:20.146Z,85.68
2023-02-24T08:11:52.076Z,85.82
2023-02-24T08:14:20.006Z,85.72
2023-02-24T08:16:47.522Z,85.73
2023-02-24T08:19:15.107Z,85.80
2023-02-24T08:21:47.345Z,85.82
2023-02-24T08:24:18.135Z,85.83
2023-02-24T08:26:45.857Z,85.87
2023-02-24T08:29:13.679Z,85.99
2023-02-24T08:31:43.371Z,86.06
2023-02-24T08:34:16.111Z,85.91
2023-02-24T08:36:48.524Z,85.99
2023-02-24T08:39:16.922Z,85.99
2023-02-24T08:41:51.464Z,86.00
2023-02-24T08:44:20.378Z,86.00
2023-02-24T08:46:52.476Z,86.11
2023-02-24T08:49:20.428Z,86.17
2023-02-24T08:51:48.369Z,86.11
2023-02-24T08:54:16.040Z,86.09
2023-02-24T08:56:44.180Z,86.05
2023-02-24T08:59:28.985Z,86.01
2023-02-24T09:02:16.548Z,86.10
2023-02-24T09:04:44.992Z,86.00
2023-02-24T09:07:15.404Z,85.87
2023-02-24T09:09:43.335Z,85.84
2023-02-24T09:12:22.136Z,85.76
2023-02-24T09:14:49.886Z,85.68
2023-02-24T09:17:20.789Z,85.67
2023-02-24T09:19:51.416Z,85.64
2023-02-24T09:22:31.546Z,85.55
2023-02-24T09:25:19.512Z,85.63
2023-02-24T09:27:52.250Z,85.66
2023-02-24T09:30:39.081Z,85.62
2023-02-24T09:33:06.997Z,85.61
2023-02-24T09:35:36.758Z,85.60
2023-02-24T09:38:07.657Z,85.52
2023-02-24T09:40:40.095Z,85.40
2023-02-24T09:43:11.210Z,85.38
2023-02-24T09:45:39.767Z,85.45
2023-02-24T09:48:10.451Z,85.84
2023-02-24T09:51:03.931Z,85.06
2023-02-24T09:53:49.354Z,83.94
2023-02-24T09:56:17.060Z,83.22
2023-02-24T09:58:50.761Z,83.01
2023-02-24T10:01:21.778Z,82.62
2023-02-24T10:03:51.712Z,82.62
2023-02-24T10:06:20.982Z,82.31
2023-02-24T10:08:49.875Z,81.96
2023-02-24T10:11:32.695Z,81.38
2023-02-24T10:14:03.669Z,81.05
2023-02-24T10:16:41.442Z,80.80
2023-02-24T10:19:15.356Z,80.61
2023-02-24T10:21:49.787Z,80.35
2023-02-24T10:24:19.420Z,80.12
2023-02-24T10:26:59.622Z,79.46
2023-02-24T10:29:29.618Z,79.62
2023-02-24T10:32:00.053Z,79.46
2023-02-24T10:34:31.929Z,79.24
2023-02-24T10:37:00.962Z,77.98
2023-02-24T10:39:33.311Z,77.43
2023-02-24T10:42:15.505Z,76.78
2023-02-24T10:45:01.371Z,77.13
2023-02-24T10:47:32.096Z,76.37
2023-02-24T10:49:59.900Z,75.99
2023-02-24T10:52:46.081Z,75.08
2023-02-24T10:55:29.249Z,74.68
2023-02-24T10:58:06.202Z,74.87
2023-02-24T11:00:51.981Z,74.33
2023-02-24T11:03:36.052Z,74.18
2023-02-24T11:06:03.742Z,74.59
2023-02-24T11:08:54.559Z,74.61
2023-02-24T11:11:51.430Z,75.04
2023-02-24T11:14:37.649Z,75.14
2023-02-24T11:17:17.583Z,74.44
2023-02-24T11:19:45.095Z,74.60
2023-02-24T11:22:12.555Z,74.59
2023-02-24T11:24:40.497Z,74.75
2023-02-24T11:27:10.920Z,74.24
2023-02-24T11:29:38.391Z,74.03
2023-02-24T11:32:09.083Z,74.19
2023-02-24T11:34:36.641Z,74.22
2023-02-24T11:37:04.147Z,74.44
2023-02-24T11:39:31.824Z,74.28
2023-02-24T11:41:59.367Z,74.24
2023-02-24T11:44:28.307Z,74.45
2023-02-24T11:46:57.702Z,74.11
2023-02-24T11:49:25.711Z,74.00
2023-02-24T11:51:53.149Z,73.77
2023-02-24T11:54:20.646Z,73.64
2023-02-24T11:56:48.423Z,74.16
2023-02-24T11:59:16.132Z,74.00
2023-02-24T12:01:44.465Z,73.78
2023-02-24T12:04:12.021Z,74.04
2023-02-24T12:06:39.502Z,74.10
2023-02-24T12:09:09.330Z,74.13
2023-02-24T12:11:38.503Z,74.18
2023-02-24T12:14:06.946Z,73.78
2023-02-24T12:16:34.614Z,73.58
2023-02-24T12:19:02.226Z,73.63
2023-02-24T12:21:33.865Z,73.73
2023-02-24T12:24:02.276Z,73.88
2023-02-24T12:26:29.806Z,73.94
2023-02-24T12:28:57.593Z,74.07
2023-02-24T12:31:25.624Z,73.51
2023-02-24T12:33:53.481Z,72.96
2023-02-24T12:36:21.619Z,73.17
2023-02-24T12:38:49.619Z,73.32
2023-02-24T12:41:17.189Z,73.18
2023-02-24T12:43:45.216Z,72.95
2023-02-24T12:46:13.225Z,72.83
2023-02-24T12:48:40.723Z,72.73
2023-02-24T12:51:08.270Z,72.72
2023-02-24T12:53:35.841Z,72.46
2023-02-24T12:56:03.315Z,72.21
2023-02-24T12:58:30.935Z,72.37
2023-02-24T13:00:58.679Z,72.75
2023-02-24T13:03:26.480Z,73.20
2023-02-24T13:05:54.032Z,73.27
2023-02-24T13:08:21.646Z,73.49
2023-02-24T13:10:49.194Z,73.74
2023-02-24T13:13:16.772Z,73.77
2023-02-24T13:15:44.283Z,73.81
2023-02-24T13:18:11.814Z,74.01
2023-02-24T13:20:39.356Z,73.60
2023-02-24T13:23:06.884Z,73.12
2023-02-24T13:25:34.476Z,72.94
2023-02-24T13:28:04.987Z,73.14
2023-02-24T13:30:32.557Z,73.35
2023-02-24T13:33:00.102Z,73.06
2023-02-24T13:35:27.745Z,73.40
2023-02-24T13:37:55.523Z,73.12
2023-02-24T13:40:23.245Z,73.03
2023-02-24T13:42:50.731Z,73.26
2023-02-24T13:45:18.281Z,73.51
2023-02-24T13:47:45.930Z,74.07
2023-02-24T13:50:13.683Z,74.32
2023-02-24T13:52:41.229Z,74.66
2023-02-24T13:55:08.817Z,74.80
2023-02-24T13:57:36.265Z,75.06
2023-02-24T14:00:10.290Z,75.05
2023-02-24T14:02:38.848Z,75.33
2023-02-24T14:05:06.600Z,75.14
2023-02-24T14:07:34.287Z,75.05
2023-02-24T14:10:02.208Z,74.92
2023-02-24T14:12:29.704Z,75.00
2023-02-24T14:14:57.223Z,74.94
2023-02-24T14:17:28.321Z,75.00
2023-02-24T14:19:56.397Z,74.91
2023-02-24T14:22:23.988Z,74.91
2023-02-24T14:24:51.425Z,74.97
2023-02-24T14:27:18.928Z,75.25
2023-02-24T14:29:46.561Z,75.24
2023-02-24T14:32:14.070Z,75.16
2023-02-24T14:34:41.610Z,75.16
2023-02-24T14:37:09.428Z,74.70
2023-02-24T14:39:36.957Z,74.30
2023-02-24T14:42:04.718Z,74.52
2023-02-24T14:44:32.385Z,74.83
2023-02-24T14:46:59.825Z,75.08
2023-02-24T14:49:27.678Z,75.07
2023-02-24T14:51:55.151Z,74.96
2023-02-24T14:54:22.747Z,74.85
2023-02-24T14:56:50.325Z,74.75
2023-02-24T14:59:17.977Z,74.91
2023-02-24T15:01:45.569Z,75.11
2023-02-24T15:04:13.590Z,75.20
2023-02-24T15:06:41.345Z,75.14
2023-02-24T15:09:08.996Z,75.19
2023-02-24T15:11:37.278Z,75.38
2023-02-24T15:14:06.376Z,75.56
2023-02-24T15:16:34.031Z,75.79
2023-02-24T15:19:01.876Z,75.99
2023-02-24T15:21:34.033Z,76.09
2023-02-24T15:24:02.621Z,76.11
2023-02-24T15:26:31.006Z,76.12
2023-02-24T15:28:58.899Z,76.22
2023-02-24T15:31:28.173Z,76.29
2023-02-24T15:33:55.949Z,76.41
2023-02-24T15:36:23.738Z,76.51
2023-02-24T15:38:51.477Z,77.03
2023-02-24T15:41:19.063Z,77.75
2023-02-24T15:43:47.287Z,78.27
2023-02-24T15:46:15.363Z,78.71
2023-02-24T15:48:42.955Z,78.85
2023-02-24T15:51:10.607Z,78.95
2023-02-24T15:53:38.096Z,79.21
2023-02-24T15:56:05.813Z,79.11
2023-02-24T15:58:34.726Z,79.07
2023-02-24T16:01:02.445Z,78.96
2023-02-24T16:03:30.144Z,78.83
2023-02-24T16:05:57.768Z,78.60
2023-02-24T16:08:25.219Z,78.47
2023-02-24T16:10:53.938Z,78.41
2023-02-24T16:13:21.508Z,78.30
2023-02-24T16:15:48.928Z,78.35
2023-02-24T16:18:20.961Z,78.38
2023-02-24T16:20:54.382Z,78.33
2023-02-24T16:23:22.672Z,78.34
2023-02-24T16:25:50.149Z,78.40
2023-02-24T16:28:17.733Z,78.40
2023-02-24T16:30:45.403Z,78.42
2023-02-24T16:33:13.176Z,78.40
2023-02-24T16:35:42.259Z,78.38
2023-02-24T16:38:12.269Z,78.30
2023-02-24T16:40:39.744Z,78.39
2023-02-24T16:43:07.210Z,78.49
2023-02-24T16:45:36.382Z,78.48
2023-02-24T16:48:03.875Z,78.58
2023-02-24T16:50:33.451Z,78.65
2023-02-24T16:53:01.106Z,78.75
2023-02-24T16:55:31.643Z,78.78
2023-02-24T16:57:59.093Z,78.77
2023-02-24T17:00:26.586Z,78.73
2023-02-24T17:02:54.402Z,78.65
2023-02-24T17:05:21.983Z,78.60
2023-02-24T17:07:49.627Z,78.46
2023-02-24T17:10:17.089Z,78.50
2023-02-24T17:12:44.564Z,78.69
2023-02-24T17:15:12.084Z,79.03
2023-02-24T17:17:39.549Z,79.56
2023-02-24T17:20:06.987Z,80.34
2023-02-24T17:22:36.992Z,81.18
2023-02-24T17:25:04.666Z,81.28
2023-02-24T17:27:32.183Z,81.18
2023-02-24T17:29:59.747Z,81.08
2023-02-24T17:32:27.435Z,81.13
2023-02-24T17:34:54.997Z,81.15
2023-02-24T17:37:22.527Z,81.11
2023-02-24T17:39:50.096Z,81.34
2023-02-24T17:42:17.554Z,81.34
2023-02-24T17:44:45.446Z,81.31
2023-02-24T17:47:12.916Z,81.45
2023-02-24T17:49:40.471Z,81.38
2023-02-24T17:52:08.246Z,81.33
2023-02-24T17:54:35.909Z,81.42
2023-02-24T17:57:03.478Z,81.60
2023-02-24T17:59:31.072Z,82.03
2023-02-24T18:01:59.981Z,81.60
2023-02-24T18:04:27.893Z,81.50
2023-02-24T18:06:55.389Z,81.56
2023-02-24T18:09:23.825Z,81.58
2023-02-24T18:11:51.279Z,81.51
2023-02-24T18:14:18.804Z,81.50
2023-02-24T18:16:46.295Z,81.46
2023-02-24T18:19:13.765Z,81.49
2023-02-24T18:21:41.253Z,81.40
2023-02-24T18:24:08.688Z,81.32
2023-02-24T18:26:36.166Z,81.26
2023-02-24T18:29:03.716Z,81.21
2023-02-24T18:31:32.871Z,81.18
2023-02-24T18:34:00.518Z,81.13
2023-02-24T18:36:28.096Z,81.20
2023-02-24T18:38:55.776Z,81.25
2023-02-24T18:41:26.439Z,81.40
2023-02-24T18:43:54.244Z,81.55
2023-02-24T18:46:22.267Z,81.75
2023-02-24T18:48:50.352Z,82.12
2023-02-24T18:51:18.087Z,82.58
2023-02-24T18:53:45.616Z,82.76
2023-02-24T18:56:13.370Z,83.06
2023-02-24T18:58:41.055Z,83.21
2023-02-24T19:01:08.577Z,83.42
2023-02-24T19:03:36.069Z,83.49
2023-02-24T19:06:03.767Z,83.51
2023-02-24T19:08:31.263Z,83.31
2023-02-24T19:10:58.708Z,83.22
2023-02-24T19:13:26.277Z,83.33
2023-02-24T19:15:53.753Z,83.16
2023-02-24T19:18:21.261Z,83.06
2023-02-24T19:20:49.103Z,83.02
2023-02-24T19:23:16.574Z,82.96
2023-02-24T19:25:44.144Z,82.96
2023-02-24T19:28:12.192Z,83.04
2023-02-24T19:30:39.830Z,83.36
2023-02-24T19:33:07.879Z,83.49
2023-02-24T19:35:36.120Z,83.58
2023-02-24T19:38:03.628Z,83.78
2023-02-24T19:40:31.300Z,83.86
2023-02-24T19:42:59.297Z,84.03
2023-02-24T19:45:27.176Z,84.05
2023-02-24T19:47:56.294Z,84.11
2023-02-24T19:50:24.168Z,84.13
2023-02-24T19:52:51.858Z,84.19
2023-02-24T19:55:19.740Z,84.15
2023-02-24T19:57:47.699Z,83.92
2023-02-24T20:00:16.564Z,83.81
2023-02-24T20:02:44.274Z,83.72
2023-02-24T20:05:12.291Z,83.64
2023-02-24T20:07:40.056Z,83.53
2023-02-24T20:10:07.791Z,83.51
2023-02-24T20:12:35.843Z,83.57
2023-02-24T20:15:03.476Z,83.66
2023-02-24T20:17:31.096Z,83.96
2023-02-24T20:19:59.546Z,84.03
2023-02-24T20:22:27.115Z,84.19
2023-02-24T20:24:54.667Z,84.28
2023-02-24T20:27:22.342Z,84.38
2023-02-24T20:29:53.684Z,84.52
2023-02-24T20:32:21.643Z,84.69
2023-02-24T20:34:49.732Z,84.42
2023-02-24T20:37:18.408Z,84.75
2023-02-24T20:39:46.273Z,84.99
2023-02-24T20:42:16.278Z,85.51
2023-02-24T20:44:43.935Z,86.12
2023-02-24T20:47:11.853Z,86.10
2023-02-24T20:49:39.915Z,86.15
2023-02-24T20:52:07.642Z,86.06
2023-02-24T20:54:35.372Z,86.08
2023-02-24T20:57:03.139Z,86.26
2023-02-24T20:59:31.289Z,86.45
2023-02-24T21:01:59.737Z,86.64
2023-02-24T21:04:28.661Z,86.67
2023-02-24T21:06:56.870Z,86.37
2023-02-24T21:09:25.194Z,86.31
2023-02-24T21:11:52.981Z,86.28
2023-02-24T21:14:22.078Z,86.10
2023-02-24T21:16:49.820Z,85.99
2023-02-24T21:19:18.306Z,85.90
2023-02-24T21:21:45.946Z,85.81
2023-02-24T21:24:13.418Z,85.70
2023-02-24T21:26:41.066Z,85.63
2023-02-24T21:29:08.682Z,85.56
2023-02-24T21:31:36.509Z,85.51
2023-02-24T21:34:04.485Z,85.44
2023-02-24T21:36:32.051Z,85.32
2023-02-24T21:39:00.953Z,85.38
2023-02-24T21:41:28.679Z,85.35
2023-02-24T21:43:56.280Z,85.40
2023-02-24T21:46:24.975Z,85.37
2023-02-24T21:48:52.666Z,85.45
2023-02-24T21:51:20.461Z,85.49
2023-02-24T21:53:49.716Z,85.33
2023-02-24T21:56:17.470Z,85.28
2023-02-24T21:58:44.962Z,85.23
2023-02-24T22:01:13.250Z,85.18
2023-02-24T22:03:40.896Z,85.10
2023-02-24T22:06:08.391Z,85.00
2023-02-24T22:08:37.711Z,84.96
2023-02-24T22:11:06.117Z,84.85
2023-02-24T22:13:33.566Z,84.80
2023-02-24T22:16:02.152Z,84.90
2023-02-24T22:18:29.842Z,84.88
2023-02-24T22:20:57.377Z,84.85
2023-02-24T22:23:24.839Z,84.83
2023-02-24T22:25:52.383Z,84.86
2023-02-24T22:28:19.859Z,85.18
2023-02-24T22:30:47.514Z,85.21
2023-02-24T22:33:15.087Z,85.27
2023-02-24T22:35:42.660Z,85.39
2023-02-24T22:38:10.199Z,85.51
2023-02-24T22:40:37.692Z,85.81
2023-02-24T22:43:05.195Z,85.93
2023-02-24T22:45:32.680Z,85.97
2023-02-24T22:48:00.622Z,85.80
2023-02-24T22:50:28.328Z,85.92
2023-02-24T22:52:55.816Z,85.88
2023-02-24T22:55:23.989Z,85.83
2023-02-24T22:57:51.430Z,85.80
2023-02-24T23:00:23.103Z,85.72
2023-02-24T23:02:51.069Z,85.60
2023-02-24T23:05:18.653Z,85.61
2023-02-24T23:07:48.434Z,85.58
2023-02-24T23:10:16.272Z,85.56
2023-02-24T23:12:43.821Z,85.56
2023-02-24T23:15:11.267Z,85.66
2023-02-24T23:17:38.983Z,85.76
2023-02-24T23:20:12.760Z,85.73
2023-02-24T23:22:40.372Z,85.89
2023-02-24T23:25:08.146Z,86.00
2023-02-24T23:27:35.802Z,85.90
2023-02-24T23:30:03.322Z,86.62
2023-02-24T23:32:30.972Z,87.13
2023-02-24T23:34:58.535Z,87.08
2023-02-24T23:37:26.404Z,86.80
2023-02-24T23:39:54.786Z,86.52
2023-02-24T23:42:22.290Z,86.24
2023-02-24T23:44:49.860Z,86.01
2023-02-24T23:47:17.438Z,85.86
2023-02-24T23:49:48.527Z,85.70
2023-02-24T23:52:16.257Z,85.55
2023-02-24T23:54:43.720Z,85.36
2023-02-24T23:57:11.542Z,85.06
2023-02-24T23:59:39.424Z,84.77
